Time;durP1;ratioP1;P1;durP2;ratioP2;P2;SDS_P1;SDS_P2;PMS_P1;PMS_P2;Temp;Humidity;BMP_temperature;BMP_pressure;BME280_temperature;BME280_humidity;BME280_pressure;Samples;Min_cycle;Max_cycle;Signal;HPM_P1;HPM_P2
2022/10/26 00:00:35;;;;;;;13.90;9.85;;;;;;;8.64;100.00;99919.19;4975660;28;20125;-85
2022/10/26 00:03:00;;;;;;;13.70;11.02;;;;;;;8.69;100.00;99925.06;4975798;28;20530;-85
2022/10/26 00:05:25;;;;;;;14.45;9.98;;;;;;;8.62;100.00;99918.38;4975680;28;20118;-85
2022/10/26 00:07:51;;;;;;;13.00;10.65;;;;;;;8.67;100.00;99928.63;4975697;28;20097;-85
2022/10/26 00:10:16;;;;;;;14.88;11.55;;;;;;;8.57;100.00;99920.31;4958310;28;20030;-85
2022/10/26 00:12:41;;;;;;;17.10;13.45;;;;;;;8.64;100.00;99933.94;4975704;28;20078;-85
2022/10/26 00:15:07;;;;;;;18.77;13.55;;;;;;;8.48;100.00;99918.88;4975602;28;20019;-85
2022/10/26 00:17:33;;;;;;;17.05;12.88;;;;;;;8.50;100.00;99924.00;4957773;28;20434;-85
2022/10/26 00:19:59;;;;;;;18.52;13.93;;;;;;;8.51;100.00;99941.25;4975592;28;20030;-85
2022/10/26 00:22:25;;;;;;;16.42;12.18;;;;;;;8.48;100.00;99938.78;4975393;28;20019;-85
2022/10/26 00:24:51;;;;;;;21.02;15.88;;;;;;;8.48;100.00;99949.16;4975477;28;20058;-85
2022/10/26 00:27:16;;;;;;;22.55;14.68;;;;;;;8.44;100.00;99948.41;4975432;28;20428;-85
2022/10/26 00:29:42;;;;;;;13.68;11.32;;;;;;;8.45;100.00;99951.84;4975141;28;20029;-85
2022/10/26 00:32:07;;;;;;;16.90;12.20;;;;;;;8.43;100.00;99957.13;4957835;28;20023;-85
2022/10/26 00:34:32;;;;;;;15.57;12.48;;;;;;;8.36;100.00;99954.72;4975127;28;20115;-85
2022/10/26 00:36:58;;;;;;;18.90;13.10;;;;;;;8.34;100.00;99961.69;4975249;28;20351;-85
2022/10/26 00:39:23;;;;;;;20.77;13.90;;;;;;;8.32;100.00;99963.50;4974918;28;20023;-85
2022/10/26 00:41:48;;;;;;;16.33;13.98;;;;;;;8.17;100.00;99944.09;4975148;28;20027;-85
2022/10/26 00:44:42;;;;;;;15.85;12.55;;;;;;;8.33;100.00;99973.84;4957701;28;20038;-85
2022/10/26 00:47:24;;;;;;;21.05;12.63;;;;;;;8.30;100.00;99957.50;4975390;28;20026;-85
2022/10/26 00:49:53;;;;;;;19.60;13.25;;;;;;;8.21;100.00;99943.94;4974651;28;20047;-85
2022/10/26 00:52:20;;;;;;;17.65;12.40;;;;;;;8.30;100.00;99960.09;4974867;28;20109;-85
2022/10/26 00:54:45;;;;;;;16.70;13.30;;;;;;;8.28;100.00;99961.91;4957078;28;20023;-85
2022/10/26 00:57:13;;;;;;;22.52;13.43;;;;;;;8.16;100.00;99942.38;4974720;28;20054;-85
2022/10/26 00:59:39;;;;;;;20.30;12.93;;;;;;;8.26;100.00;99961.97;4974621;28;20070;-85
2022/10/26 01:02:05;;;;;;;15.82;13.02;;;;;;;8.20;100.00;99954.38;4974865;28;20437;-85
2022/10/26 01:04:32;;;;;;;16.17;13.10;;;;;;;8.16;100.00;99934.59;4973343;28;20065;-85
2022/10/26 01:07:00;;;;;;;17.80;13.88;;;;;;;8.22;100.00;99948.25;4974614;28;20022;-85
2022/10/26 01:09:25;;;;;;;17.63;13.68;;;;;;;8.18;100.00;99943.22;4974456;28;20035;-85
2022/10/26 01:11:51;;;;;;;17.15;13.18;;;;;;;8.16;100.00;99940.63;4974827;28;20030;-85
2022/10/26 01:14:18;;;;;;;15.75;13.07;;;;;;;8.17;100.00;99939.72;4957280;28;20058;-85
2022/10/26 01:17:01;;;;;;;16.50;13.02;;;;;;;8.16;100.00;99930.25;4974286;28;20046;-85
2022/10/26 01:19:50;;;;;;;18.02;12.68;;;;;;;8.15;100.00;99933.75;4956626;28;20031;-86
2022/10/26 01:22:31;;;;;;;15.93;12.10;;;;;;;8.18;100.00;99949.25;4974359;28;20026;-85
2022/10/26 01:25:21;;;;;;;16.77;12.80;;;;;;;8.14;100.00;99945.03;4957101;28;20027;-85
2022/10/26 01:27:50;;;;;;;15.32;11.85;;;;;;;8.10;100.00;99943.44;4974050;28;20414;-85
2022/10/26 01:30:21;;;;;;;15.93;12.43;;;;;;;8.07;100.00;99946.13;4956743;28;20333;-85
2022/10/26 01:33:02;;;;;;;15.50;12.70;;;;;;;8.05;100.00;99949.66;4956676;28;20018;-85
2022/10/26 01:35:41;;;;;;;14.38;12.00;;;;;;;7.96;100.00;99936.09;4956582;28;20221;-85
2022/10/26 01:38:30;;;;;;;17.08;12.75;;;;;;;8.00;100.00;99942.88;4956692;28;20030;-85
2022/10/26 01:41:16;;;;;;;22.65;15.02;;;;;;;7.92;100.00;99936.22;4973931;28;20102;-85
2022/10/26 01:43:54;;;;;;;28.33;18.23;;;;;;;7.93;100.00;99932.75;4956357;28;20050;-85
2022/10/26 01:46:22;;;;;;;19.48;15.85;;;;;;;7.86;100.00;99926.91;4973821;28;20023;-85
2022/10/26 01:48:52;;;;;;;21.25;15.27;;;;;;;7.81;100.00;99921.00;4973840;28;20041;-85
2022/10/26 01:51:19;;;;;;;16.70;13.67;;;;;;;7.82;100.00;99925.28;4973475;28;20068;-85
2022/10/26 01:53:45;;;;;;;17.90;12.38;;;;;;;7.75;100.00;99919.47;4973464;28;20114;-85
2022/10/26 01:56:22;;;;;;;16.02;12.38;;;;;;;7.87;100.00;99931.19;4956408;28;20370;-85
2022/10/26 01:58:53;;;;;;;14.35;11.05;;;;;;;7.91;100.00;99935.38;4955903;28;20027;-85
2022/10/26 02:01:21;;;;;;;15.00;11.35;;;;;;;7.94;100.00;99926.66;4973610;28;20545;-85
2022/10/26 02:04:01;;;;;;;14.13;11.40;;;;;;;7.86;100.00;99916.53;4956209;28;20034;-85
2022/10/26 02:07:14;;;;;;;16.58;12.00;;;;;;;7.90;100.00;99933.69;4973790;28;20035;-85
2022/10/26 02:10:09;;;;;;;13.10;10.88;;;;;;;7.84;100.00;99923.53;4916546;29;20603;-85
2022/10/26 02:12:49;;;;;;;15.68;10.93;;;;;;;7.76;100.00;99912.53;4916549;29;20066;-85
2022/10/26 02:15:22;;;;;;;15.32;11.30;;;;;;;7.83;100.00;99928.72;4916412;29;20055;-85
2022/10/26 02:18:09;;;;;;;13.43;11.23;;;;;;;7.83;100.00;99928.72;4932326;29;20031;-85
2022/10/26 02:20:40;;;;;;;14.68;12.00;;;;;;;7.83;100.00;99928.72;4916248;29;20035;-85
2022/10/26 02:23:07;;;;;;;17.23;12.48;;;;;;;7.71;100.00;99915.28;4913410;29;20113;-85
2022/10/26 02:25:38;;;;;;;16.35;12.18;;;;;;;7.77;100.00;99923.75;4897455;29;20559;-85
2022/10/26 02:28:08;;;;;;;12.77;10.52;;;;;;;7.61;100.00;99911.25;4913499;29;20201;-85
2022/10/26 02:30:35;;;;;;;12.38;10.20;;;;;;;7.71;100.00;99932.53;4913448;29;20036;-85
2022/10/26 02:33:03;;;;;;;14.18;10.27;;;;;;;7.64;100.00;99920.69;4913447;29;20044;-85
2022/10/26 02:35:30;;;;;;;17.60;10.93;;;;;;;7.70;100.00;99934.28;4913481;29;20036;-85
2022/10/26 02:38:00;;;;;;;14.35;10.80;;;;;;;7.70;100.00;99925.66;4913360;29;20059;-85
2022/10/26 02:40:27;;;;;;;12.10;10.45;;;;;;;7.71;100.00;99929.94;4935012;29;20166;-85
2022/10/26 02:42:54;;;;;;;17.70;11.05;;;;;;;7.65;100.00;99918.03;4951259;29;20552;-85
2022/10/26 02:45:24;;;;;;;18.08;10.10;;;;;;;7.63;100.00;99926.78;4951455;29;20027;-85
2022/10/26 02:47:50;;;;;;;14.20;9.83;;;;;;;7.57;100.00;99916.56;4951250;29;20932;-85
2022/10/26 02:50:18;;;;;;;15.73;12.05;;;;;;;7.64;100.00;99931.91;4951063;29;20350;-85
2022/10/26 02:52:55;;;;;;;15.88;10.20;;;;;;;7.57;100.00;99929.53;4935067;29;20102;-85
2022/10/26 02:55:32;;;;;;;16.38;10.50;;;;;;;7.59;100.00;99938.97;4973128;28;20034;-85
2022/10/26 02:58:03;;;;;;;13.32;9.27;;;;;;;7.53;100.00;99933.94;4955505;28;20174;-85
2022/10/26 03:00:29;;;;;;;13.90;9.88;;;;;;;7.50;100.00;99928.88;4972929;28;20022;-85
2022/10/26 03:02:57;;;;;;;16.15;11.10;;;;;;;7.57;100.00;99940.75;4973139;28;20031;-85
2022/10/26 03:05:26;;;;;;;14.40;9.63;;;;;;;7.54;100.00;99943.41;4973012;28;20072;-85
2022/10/26 03:07:53;;;;;;;14.93;10.07;;;;;;;7.46;100.00;99938.47;4955315;28;20022;-85
2022/10/26 03:10:19;;;;;;;15.65;10.07;;;;;;;7.56;100.00;99952.00;4972893;28;20081;-85
2022/10/26 03:12:45;;;;;;;14.20;9.38;;;;;;;7.53;100.00;99941.72;4955788;28;20018;-85
2022/10/26 03:15:10;;;;;;;16.83;10.00;;;;;;;7.52;100.00;99944.38;4973091;28;20026;-86
2022/10/26 03:17:36;;;;;;;15.73;10.63;;;;;;;7.53;100.00;99952.09;4955256;28;20455;-86
2022/10/26 03:20:02;;;;;;;17.88;11.10;;;;;;;7.52;100.00;99954.75;4955445;28;20029;-85
2022/10/26 03:22:27;;;;;;;16.33;11.90;;;;;;;7.46;100.00;99940.22;4955420;28;20377;-85
2022/10/26 03:24:52;;;;;;;15.00;11.25;;;;;;;7.42;100.00;99947.25;4972702;28;20031;-85
2022/10/26 03:27:18;;;;;;;15.65;10.90;;;;;;;7.45;100.00;99957.50;4955583;28;20358;-85
2022/10/26 03:29:43;;;;;;;15.88;12.18;;;;;;;7.41;100.00;99960.22;4958924;28;20066;-85
2022/10/26 03:32:09;;;;;;;15.35;11.90;;;;;;;7.34;100.00;99946.59;4959074;28;20023;-85
2022/10/26 03:34:34;;;;;;;16.73;11.88;;;;;;;7.40;100.00;99964.56;4976209;28;20030;-85
2022/10/26 03:36:59;;;;;;;15.95;12.85;;;;;;;7.37;100.00;99962.03;4976304;28;20418;-85
2022/10/26 03:39:25;;;;;;;20.10;14.05;;;;;;;7.36;100.00;99956.91;4976209;28;20039;-85
2022/10/26 03:41:50;;;;;;;37.78;22.67;;;;;;;7.36;100.00;99956.91;4976045;28;20019;-85
2022/10/26 03:44:15;;;;;;;36.20;21.13;;;;;;;7.32;100.00;99947.53;4976347;28;20073;-85
2022/10/26 03:46:41;;;;;;;38.35;20.58;;;;;;;7.20;100.00;99935.78;4958646;28;20023;-85
2022/10/26 03:49:06;;;;;;;42.97;20.50;;;;;;;7.29;100.00;99960.56;4976020;28;20457;-85
2022/10/26 03:51:32;;;;;;;35.50;19.58;;;;;;;7.29;100.00;99953.66;4958464;28;20023;-85
2022/10/26 03:53:57;;;;;;;35.65;20.83;;;;;;;7.29;100.00;99953.66;4975735;28;20034;-85
2022/10/26 03:56:23;;;;;;;26.98;14.52;;;;;;;7.30;100.00;99957.09;4958440;28;20169;-85
2022/10/26 03:58:48;;;;;;;28.45;16.30;;;;;;;7.17;100.00;99934.13;4976003;28;20030;-85
2022/10/26 04:01:14;;;;;;;27.20;16.13;;;;;;;7.18;100.00;99938.41;4958538;28;20118;-85
2022/10/26 04:03:39;;;;;;;23.02;14.55;;;;;;;7.26;100.00;99966.69;4975598;28;20026;-85
2022/10/26 04:06:05;;;;;;;23.10;13.52;;;;;;;7.23;100.00;99961.59;4958361;28;20023;-85
2022/10/26 04:08:30;;;;;;;19.33;11.88;;;;;;;7.22;100.00;99958.16;4975707;28;20065;-85
2022/10/26 04:10:56;;;;;;;19.83;12.43;;;;;;;7.18;100.00;99948.78;4975363;28;20051;-85
2022/10/26 04:13:21;;;;;;;16.60;11.30;;;;;;;7.27;100.00;99955.44;4975818;28;20023;-85
2022/10/26 04:15:47;;;;;;;17.00;11.90;;;;;;;7.27;100.00;99954.59;4975476;28;20022;-85
2022/10/26 04:18:12;;;;;;;17.63;12.07;;;;;;;7.20;100.00;99959.09;4975512;28;20031;-85
2022/10/26 04:20:41;;;;;;;19.45;12.13;;;;;;;7.13;100.00;99958.41;4975080;28;20026;-85
2022/10/26 04:23:09;;;;;;;13.63;11.30;;;;;;;7.11;100.00;99956.75;4934406;29;20032;-85
2022/10/26 04:25:35;;;;;;;15.52;10.52;;;;;;;7.10;100.00;99955.06;4934446;29;20050;-85
2022/10/26 04:28:03;;;;;;;18.35;12.27;;;;;;;7.15;100.00;99963.53;4934287;29;20043;-85
2022/10/26 04:30:29;;;;;;;14.35;12.63;;;;;;;7.11;100.00;99956.75;4934707;29;20038;-85
2022/10/26 04:32:54;;;;;;;15.32;10.95;;;;;;;7.04;100.00;99950.03;4934200;29;20130;-85
2022/10/26 04:35:20;;;;;;;12.60;10.25;;;;;;;7.08;100.00;99957.69;4934411;29;20535;-85
2022/10/26 04:37:45;;;;;;;17.05;10.80;;;;;;;7.09;100.00;99954.22;4934070;29;20118;-85
2022/10/26 04:40:11;;;;;;;15.07;10.80;;;;;;;7.03;100.00;99951.78;4934084;29;20032;-85
2022/10/26 04:42:54;;;;;;;15.25;10.98;;;;;;;7.05;100.00;99957.78;4934258;29;20472;-85
2022/10/26 04:45:20;;;;;;;17.20;12.00;;;;;;;6.98;100.00;99953.66;4934266;29;20028;-85
2022/10/26 04:47:46;;;;;;;14.93;11.82;;;;;;;7.04;100.00;99963.84;4933965;29;20039;-85
2022/10/26 04:50:12;;;;;;;14.20;11.90;;;;;;;7.00;100.00;99962.25;4934134;29;20180;-85
2022/10/26 04:52:38;;;;;;;15.18;12.52;;;;;;;7.01;100.00;99974.28;4934020;29;20024;-85
2022/10/26 04:55:05;;;;;;;16.42;13.02;;;;;;;6.95;100.00;99967.53;4953567;28;20049;-85
2022/10/26 04:57:32;;;;;;;18.23;13.55;;;;;;;6.95;100.00;99969.25;4957576;28;20055;-85
2022/10/26 04:59:59;;;;;;;16.90;12.73;;;;;;;6.93;100.00;99960.69;4974390;28;20374;-85
2022/10/26 05:02:24;;;;;;;14.88;11.52;;;;;;;6.95;100.00;99964.97;4957492;28;20026;-85
2022/10/26 05:04:50;;;;;;;13.57;11.45;;;;;;;6.90;100.00;99960.78;4974561;28;20038;-85
2022/10/26 05:07:15;;;;;;;15.85;12.25;;;;;;;6.87;100.00;99948.78;4957380;28;20026;-85
2022/10/26 05:09:40;;;;;;;18.42;12.68;;;;;;;6.95;100.00;99964.06;4957101;28;20069;-85
2022/10/26 05:12:06;;;;;;;18.00;13.80;;;;;;;6.93;100.00;99976.22;4974628;28;20462;-85
2022/10/26 05:14:31;;;;;;;19.33;13.50;;;;;;;6.89;100.00;99974.63;4974600;28;20023;-85
2022/10/26 05:16:57;;;;;;;19.40;12.40;;;;;;;6.83;100.00;99967.88;4974214;28;20034;-84
2022/10/26 05:19:22;;;;;;;15.13;12.68;;;;;;;6.85;100.00;99976.44;4974236;28;20485;-84
2022/10/26 05:21:47;;;;;;;19.67;12.70;;;;;;;6.85;100.00;99984.19;4974292;28;20493;-84
2022/10/26 05:24:13;;;;;;;21.85;13.23;;;;;;;6.85;100.00;99988.53;4974295;28;20029;-85
2022/10/26 05:26:38;;;;;;;16.23;13.00;;;;;;;6.82;100.00;99983.41;4974310;28;20375;-85
2022/10/26 05:29:04;;;;;;;17.13;13.13;;;;;;;6.76;100.00;99981.84;4956742;28;20026;-84
2022/10/26 05:31:29;;;;;;;24.05;12.68;;;;;;;6.80;100.00;99985.22;4974295;28;20038;-84
2022/10/26 05:33:55;;;;;;;22.27;15.32;;;;;;;6.74;100.00;99978.44;4973901;28;20054;-84
2022/10/26 05:36:20;;;;;;;15.65;13.07;;;;;;;6.76;100.00;99989.63;4973920;28;20035;-84
2022/10/26 05:38:46;;;;;;;17.08;12.70;;;;;;;6.73;100.00;99995.72;4956406;28;20065;-84
2022/10/26 05:41:11;;;;;;;14.50;12.95;;;;;;;6.70;100.00;99992.34;4974136;28;20109;-85
2022/10/26 05:43:37;;;;;;;18.38;13.68;;;;;;;6.74;100.00;100004.31;4974004;28;20023;-85
2022/10/26 05:46:03;;;;;;;19.40;13.32;;;;;;;6.74;100.00;100001.72;4973773;28;20030;-85
2022/10/26 05:48:28;;;;;;;17.50;14.50;;;;;;;6.77;100.00;100008.59;4974070;28;20117;-84
2022/10/26 05:50:53;;;;;;;20.25;14.25;;;;;;;6.77;100.00;100004.25;4972762;28;20047;-84
2022/10/26 05:53:19;;;;;;;38.75;23.98;;;;;;;6.77;100.00;100004.25;4973805;28;20057;-84
2022/10/26 05:55:44;;;;;;;40.72;23.90;;;;;;;6.87;100.00;100010.03;4973683;28;20034;-84
2022/10/26 05:58:11;;;;;;;31.05;19.90;;;;;;;6.96;100.00;100013.25;4973855;28;20103;-84
2022/10/26 06:00:46;;;;;;;40.47;24.08;;;;;;;7.03;100.00;100006.16;4973644;28;20429;-84
2022/10/26 06:03:30;;;;;;;50.35;31.25;;;;;;;7.15;100.00;100012.75;4973528;28;20019;-84
2022/10/26 06:05:57;;;;;;;39.30;26.08;;;;;;;7.19;100.00;100007.47;4973300;28;20037;-84
2022/10/26 06:08:26;;;;;;;34.97;22.92;;;;;;;7.34;100.00;100013.97;4973691;28;20023;-84
2022/10/26 06:10:52;;;;;;;35.40;23.80;;;;;;;7.47;100.00;100020.50;4973350;28;20037;-84
2022/10/26 06:13:19;;;;;;;38.17;23.55;;;;;;;7.59;100.00;100019.31;4973584;28;20023;-84
2022/10/26 06:16:13;;;;;;;38.45;25.35;;;;;;;7.76;100.00;100016.25;4973262;28;20027;-84
2022/10/26 06:18:41;;;;;;;37.70;24.05;;;;;;;7.99;100.00;100015.56;4932420;29;20070;-84
2022/10/26 06:21:15;;;;;;;36.50;23.00;;;;;;;8.20;100.00;100014.03;4932095;29;20126;-84
2022/10/26 06:24:17;;;;;;;36.30;22.38;;;;;;;8.48;100.00;100022.69;4932462;29;20046;-84
2022/10/26 06:26:52;;;;;;;34.10;22.63;;;;;;;8.77;100.00;100020.06;4932500;29;20069;-84
2022/10/26 06:29:20;;;;;;;30.38;20.33;;;;;;;9.11;100.00;100015.41;4932330;29;20099;-84
2022/10/26 06:31:46;;;;;;;32.78;22.38;;;;;;;9.84;100.00;100003.25;4932130;29;20479;-84
2022/10/26 06:34:20;;;;;;;33.00;22.60;;;;;;;10.44;100.00;100007.81;4916365;29;20027;-84
2022/10/26 06:36:46;;;;;;;33.28;21.70;;;;;;;10.82;100.00;100022.78;4905297;29;20040;-84
2022/10/26 06:39:15;;;;;;;34.40;20.77;;;;;;;11.20;100.00;100029.00;4913256;29;20127;-84
2022/10/26 06:41:40;;;;;;;34.28;23.23;;;;;;;12.38;100.00;100010.59;4875519;29;20033;-84
2022/10/26 06:44:21;;;;;;;39.65;26.60;;;;;;;13.72;97.66;100011.59;4875613;29;20362;-84
2022/10/26 06:47:09;;;;;;;37.25;24.45;;;;;;;13.88;94.44;100006.38;4875518;29;20416;-84
2022/10/26 06:49:53;;;;;;;32.95;22.20;;;;;;;13.75;94.04;100007.97;4875605;29;20132;-85
2022/10/26 06:52:40;;;;;;;30.90;22.27;;;;;;;14.60;93.20;100015.47;4875838;29;20037;-84
2022/10/26 06:55:13;;;;;;;37.22;25.92;;;;;;;15.46;87.44;100027.00;4879665;29;20062;-81
2022/10/26 06:57:41;;;;;;;29.05;21.85;;;;;;;15.25;87.62;100033.53;4894366;29;20043;-88
2022/10/26 07:00:19;;;;;;;35.88;23.38;;;;;;;15.01;89.62;100032.38;4878592;29;20634;-90
2022/10/26 07:02:45;;;;;;;19.60;16.27;;;;;;;15.61;88.61;100032.25;4896472;29;20040;-86
2022/10/26 07:05:11;;;;;;;20.58;16.42;;;;;;;16.78;83.24;100020.47;4913550;29;20109;-83
2022/10/26 07:07:41;;;;;;;20.77;15.68;;;;;;;16.79;81.56;100016.88;4914643;29;20043;-83
2022/10/26 07:10:07;;;;;;;20.83;14.18;;;;;;;16.03;82.78;100030.56;4935655;29;20043;-83
2022/10/26 07:12:33;;;;;;;18.80;12.55;;;;;;;15.54;85.24;100031.75;4935726;29;20468;-83
2022/10/26 07:14:59;;;;;;;13.38;11.57;;;;;;;14.89;86.89;100029.53;4935630;29;20031;-84
2022/10/26 07:17:27;;;;;;;15.13;11.48;;;;;;;14.67;89.01;100027.31;4935883;29;20101;-84
2022/10/26 07:19:53;;;;;;;13.73;10.88;;;;;;;14.64;89.72;100029.25;4968440;28;20093;-84
2022/10/26 07:22:18;;;;;;;13.85;10.75;;;;;;;14.66;90.27;100032.63;4976560;28;20114;-84
2022/10/26 07:24:43;;;;;;;14.23;11.13;;;;;;;14.60;90.40;100031.19;4976448;28;20027;-84
2022/10/26 07:27:09;;;;;;;15.27;11.40;;;;;;;14.50;90.91;100019.56;4976228;28;20027;-84
2022/10/26 07:29:34;;;;;;;15.82;11.27;;;;;;;14.56;91.22;100028.84;4976581;28;20026;-84
2022/10/26 07:32:00;;;;;;;12.68;10.52;;;;;;;14.59;91.20;100026.91;4959012;28;20077;-84
2022/10/26 07:34:25;;;;;;;15.63;10.88;;;;;;;14.67;90.93;100021.22;4976755;28;20038;-83
2022/10/26 07:36:51;;;;;;;16.02;11.40;;;;;;;14.69;90.81;100022.81;4976082;28;20454;-84
2022/10/26 07:39:16;;;;;;;16.58;11.43;;;;;;;14.81;90.26;100033.53;4976312;28;20030;-85
2022/10/26 07:41:41;;;;;;;16.90;11.55;;;;;;;14.77;89.96;100022.38;4976330;28;20050;-83
2022/10/26 07:44:07;;;;;;;14.35;11.63;;;;;;;14.90;89.35;100028.59;4976089;28;20082;-83
2022/10/26 07:46:32;;;;;;;12.57;10.98;;;;;;;14.85;89.63;100008.81;4973952;28;20105;-83
2022/10/26 07:48:58;;;;;;;13.40;11.10;;;;;;;14.96;89.61;100017.75;4958123;28;20031;-83
2022/10/26 07:51:23;;;;;;;14.65;10.43;;;;;;;15.02;90.02;100029.66;4975453;28;20101;-83
2022/10/26 07:53:49;;;;;;;12.30;10.70;;;;;;;15.11;90.19;100039.59;4975723;28;20416;-83
2022/10/26 07:56:14;;;;;;;13.85;10.10;;;;;;;15.10;89.97;100026.56;4976340;28;20237;-83
2022/10/26 07:58:40;;;;;;;21.00;11.65;;;;;;;15.21;89.17;100037.25;4975764;28;20464;-84
2022/10/26 08:01:08;;;;;;;13.00;10.18;;;;;;;15.29;89.45;100039.44;4975658;28;20027;-85
2022/10/26 08:03:33;;;;;;;14.02;10.48;;;;;;;15.24;89.18;100044.97;4976184;28;20054;-85
2022/10/26 08:05:58;;;;;;;13.80;10.25;;;;;;;15.08;88.87;100046.78;4958082;28;20471;-85
2022/10/26 08:08:24;;;;;;;13.88;10.57;;;;;;;15.15;89.75;100045.50;4975724;28;20018;-84
2022/10/26 08:10:51;;;;;;;14.95;11.43;;;;;;;15.08;89.15;100045.00;4975868;28;20113;-85
2022/10/26 08:13:16;;;;;;;13.50;10.63;;;;;;;14.89;88.62;100041.78;4915039;29;20036;-84
2022/10/26 08:15:41;;;;;;;14.10;10.40;;;;;;;14.91;89.44;100040.75;4915774;29;20076;-84
2022/10/26 08:18:07;;;;;;;11.50;9.68;;;;;;;14.95;90.20;100044.03;4915427;29;20033;-84
2022/10/26 08:20:32;;;;;;;14.63;10.40;;;;;;;14.96;90.73;100036.09;4915698;29;20420;-84
2022/10/26 08:23:00;;;;;;;12.95;9.98;;;;;;;15.02;90.72;100040.13;4915357;29;20066;-84
2022/10/26 08:25:26;;;;;;;14.85;11.00;;;;;;;15.09;90.93;100048.50;4915715;29;20042;-84
2022/10/26 08:27:51;;;;;;;13.75;10.82;;;;;;;15.13;90.72;100055.25;4915471;29;20032;-84
2022/10/26 08:30:17;;;;;;;19.13;11.55;;;;;;;15.07;90.79;100047.75;4915345;29;20032;-84
2022/10/26 08:32:43;;;;;;;17.75;12.95;;;;;;;15.04;90.83;100046.13;4899687;29;20040;-84
2022/10/26 08:35:09;;;;;;;13.15;11.27;;;;;;;15.01;91.66;100042.88;4915150;29;20043;-84
2022/10/26 08:37:34;;;;;;;13.10;10.38;;;;;;;14.97;92.29;100042.19;4915608;29;20040;-84
2022/10/26 08:40:00;;;;;;;13.32;10.80;;;;;;;14.94;92.75;100037.13;4915103;29;20123;-84
2022/10/26 08:42:39;;;;;;;14.75;10.98;;;;;;;14.89;92.71;100040.00;4915374;29;20032;-84
2022/10/26 08:45:17;;;;;;;14.88;10.43;;;;;;;14.81;92.82;100036.16;4962149;28;20031;-84
2022/10/26 08:47:49;;;;;;;14.07;10.90;;;;;;;14.81;93.36;100051.88;4975079;28;20022;-84
2022/10/26 08:50:30;;;;;;;12.98;11.48;;;;;;;14.77;93.78;100051.22;4974904;28;20097;-84
2022/10/26 08:53:02;;;;;;;12.82;10.90;;;;;;;14.63;94.17;100032.81;4957395;28;20015;-84
2022/10/26 08:55:39;;;;;;;15.70;10.73;;;;;;;14.64;94.50;100047.59;4957483;28;20031;-84
2022/10/26 08:58:11;;;;;;;15.15;11.52;;;;;;;14.59;94.76;100039.16;4974609;28;20455;-84
2022/10/26 09:00:37;;;;;;;14.20;11.55;;;;;;;14.63;95.17;100051.16;4974670;28;20030;-84
2022/10/26 09:03:13;;;;;;;13.57;11.27;;;;;;;14.57;95.52;100043.63;4957262;28;20022;-84
2022/10/26 09:05:48;;;;;;;16.77;12.70;;;;;;;14.55;95.87;100043.72;4974867;28;20027;-84
2022/10/26 09:08:20;;;;;;;16.55;11.45;;;;;;;14.53;96.00;100055.22;4957030;28;20371;-84
2022/10/26 09:11:01;;;;;;;16.60;12.27;;;;;;;14.42;95.80;100043.53;4974415;28;20038;-84
2022/10/26 09:13:39;;;;;;;13.38;11.98;;;;;;;14.45;96.18;100056.50;4974747;28;20030;-84
2022/10/26 09:16:07;;;;;;;13.13;11.82;;;;;;;14.47;96.12;100053.78;4974213;28;20145;-84
2022/10/26 09:19:07;;;;;;;18.75;13.45;;;;;;;14.50;96.67;100053.63;4957027;28;20348;-84
2022/10/26 09:21:50;;;;;;;17.63;14.02;;;;;;;14.53;96.40;100060.47;4957153;28;20553;-84
2022/10/26 09:24:31;;;;;;;15.65;13.43;;;;;;;14.50;96.07;100056.25;4974286;28;20481;-84
2022/10/26 09:27:20;;;;;;;17.10;12.85;;;;;;;14.59;96.28;100062.75;4973362;28;20025;-84
2022/10/26 09:29:46;;;;;;;20.42;13.18;;;;;;;14.61;96.54;100063.50;4957048;28;20467;-84
2022/10/26 09:32:38;;;;;;;19.05;12.77;;;;;;;14.68;96.45;100064.84;4956738;28;20023;-84
2022/10/26 09:35:12;;;;;;;17.50;14.70;;;;;;;14.71;96.06;100060.28;4956617;28;20027;-84
2022/10/26 09:37:45;;;;;;;14.90;12.93;;;;;;;14.72;95.96;100058.50;4974067;28;20023;-84
2022/10/26 09:40:21;;;;;;;23.33;12.88;;;;;;;14.73;95.26;100058.41;4956583;28;20035;-84
2022/10/26 09:43:01;;;;;;;16.00;12.25;;;;;;;14.82;95.09;100066.69;4973990;28;20509;-84
2022/10/26 09:45:31;;;;;;;21.80;14.82;;;;;;;14.83;94.51;100063.13;4974012;28;20094;-84
2022/10/26 09:48:04;;;;;;;23.38;16.52;;;;;;;14.69;94.77;100054.25;4973994;28;20114;-85
2022/10/26 09:50:34;;;;;;;18.77;14.40;;;;;;;14.65;95.33;100051.91;4973578;28;20498;-85
2022/10/26 09:53:00;;;;;;;17.55;14.40;;;;;;;14.63;95.26;100061.66;4973719;28;20030;-86
2022/10/26 09:55:26;;;;;;;16.70;10.57;;;;;;;14.52;94.18;100059.63;4973882;28;20034;-85
2022/10/26 09:57:55;;;;;;;10.80;8.43;;;;;;;14.48;92.96;100063.31;4973882;28;20029;-85
2022/10/26 10:00:22;;;;;;;13.38;9.85;;;;;;;14.41;94.12;100061.97;4973458;28;20030;-85
2022/10/26 10:02:53;;;;;;;12.43;8.75;;;;;;;14.45;94.57;100058.25;4956284;28;20467;-85
2022/10/26 10:05:23;;;;;;;10.23;7.68;;;;;;;14.61;94.84;100069.59;4973969;28;20034;-85
2022/10/26 10:07:49;;;;;;;12.23;8.52;;;;;;;14.67;95.13;100066.63;4973664;28;20466;-85
2022/10/26 10:10:18;;;;;;;11.88;7.57;;;;;;;14.71;95.04;100062.06;4955928;28;20089;-85
2022/10/26 10:12:45;;;;;;;9.90;6.78;;;;;;;14.72;94.24;100061.13;4973400;28;20031;-85
2022/10/26 10:15:20;;;;;;;9.52;6.68;;;;;;;14.79;93.94;100058.97;4973151;28;20495;-85
2022/10/26 10:17:51;;;;;;;8.30;7.00;;;;;;;14.81;93.42;100062.38;4955921;28;20029;-85
2022/10/26 10:20:29;;;;;;;8.95;6.95;;;;;;;14.88;93.48;100068.97;4973219;28;20073;-86
2022/10/26 10:23:05;;;;;;;14.55;6.65;;;;;;;14.85;92.18;100056.03;4949618;28;20035;-85
2022/10/26 10:25:36;;;;;;;9.20;6.50;;;;;;;14.90;92.11;100067.09;4973427;28;20026;-85
2022/10/26 10:28:18;;;;;;;7.63;6.65;;;;;;;14.91;92.36;100064.34;4973091;28;20348;-85
2022/10/26 10:30:52;;;;;;;8.70;7.10;;;;;;;14.90;92.70;100061.84;4973429;28;20114;-85
2022/10/26 10:33:18;;;;;;;10.35;6.97;;;;;;;14.98;93.00;100063.09;4973139;28;20019;-85
2022/10/26 10:35:50;;;;;;;13.50;8.32;;;;;;;15.01;92.87;100069.09;4955869;28;20033;-85
2022/10/26 10:38:19;;;;;;;11.43;7.22;;;;;;;15.03;92.63;100070.69;4972609;28;20015;-85
2022/10/26 10:40:54;;;;;;;11.50;6.70;;;;;;;15.01;92.39;100064.69;4973292;28;20086;-85
2022/10/26 10:43:20;;;;;;;11.38;7.60;;;;;;;15.08;92.70;100070.41;4955769;28;20026;-85
2022/10/26 10:45:48;;;;;;;15.55;9.13;;;;;;;15.10;93.02;100071.19;4973267;28;20026;-86
2022/10/26 10:48:16;;;;;;;14.18;9.13;;;;;;;15.14;93.24;100073.53;4973263;28;20027;-85
2022/10/26 10:50:59;;;;;;;12.65;8.27;;;;;;;15.19;93.35;100078.50;4972893;28;20459;-85
2022/10/26 10:53:29;;;;;;;12.32;8.38;;;;;;;15.15;92.74;100064.72;4973074;28;20081;-86
2022/10/26 10:56:22;;;;;;;15.00;9.90;;;;;;;15.22;92.70;100078.34;4955883;28;20026;-85
2022/10/26 10:59:05;;;;;;;13.18;10.43;;;;;;;15.20;91.97;100074.94;4972956;28;20023;-85
2022/10/26 11:01:37;;;;;;;13.10;9.98;;;;;;;15.15;92.14;100069.13;4955840;28;20031;-86
2022/10/26 11:04:10;;;;;;;14.88;9.95;;;;;;;15.18;92.63;100069.78;4955560;28;20058;-85
2022/10/26 11:06:37;;;;;;;17.42;11.77;;;;;;;15.25;92.30;100074.66;4955701;28;20081;-85
2022/10/26 11:09:06;;;;;;;13.38;9.85;;;;;;;15.28;92.29;100079.75;4955354;28;20034;-85
2022/10/26 11:11:47;;;;;;;21.13;12.60;;;;;;;15.27;92.14;100072.81;4972866;28;20129;-85
2022/10/26 11:14:31;;;;;;;13.50;10.45;;;;;;;15.25;92.48;100072.88;4972809;28;20034;-86
2022/10/26 11:17:15;;;;;;;15.35;10.20;;;;;;;15.26;92.75;100068.50;4973371;28;20038;-85
2022/10/26 11:19:58;;;;;;;19.17;10.68;;;;;;;15.36;93.00;100077.50;4972750;28;20463;-85
2022/10/26 11:22:29;;;;;;;14.10;10.95;;;;;;;15.37;93.18;100073.94;4972720;28;20058;-85
2022/10/26 11:24:54;;;;;;;;;;;;;;;15.43;93.15;100066.56;4973426;28;20217;-85
2022/10/26 11:27:29;;;;;;;19.73;9.88;;;;;;;15.47;93.24;100072.47;4972574;28;19942;-85